sensor_id;sensor_type;location;lat;lon;timestamp;temperature;humidity
52321;DHT22;38261;54.090;13.382;2023-06-22T00:00:06;17.00;99.90
52321;DHT22;38261;54.090;13.382;2023-06-22T00:01:33;17.00;99.90
52321;DHT22;38261;54.090;13.382;2023-06-22T00:02:57;17.00;99.90
52321;DHT22;38261;54.090;13.382;2023-06-22T00:04:19;17.00;99.90
52321;DHT22;38261;54.090;13.382;2023-06-22T00:05:41;16.90;99.90
52321;DHT22;38261;54.090;13.382;2023-06-22T00:07:03;16.90;99.90
52321;DHT22;38261;54.090;13.382;2023-06-22T00:08:25;16.90;99.90
52321;DHT22;38261;54.090;13.382;2023-06-22T00:09:47;16.80;99.90
52321;DHT22;38261;54.090;13.382;2023-06-22T00:11:10;16.80;99.90
52321;DHT22;38261;54.090;13.382;2023-06-22T00:12:32;16.80;99.90
52321;DHT22;38261;54.090;13.382;2023-06-22T00:13:54;16.80;99.90
52321;DHT22;38261;54.090;13.382;2023-06-22T00:15:16;16.70;99.90
52321;DHT22;38261;54.090;13.382;2023-06-22T00:16:38;16.70;99.90
52321;DHT22;38261;54.090;13.382;2023-06-22T00:18:00;16.70;99.90
52321;DHT22;38261;54.090;13.382;2023-06-22T00:19:24;16.70;99.90
52321;DHT22;38261;54.090;13.382;2023-06-22T00:20:46;16.70;99.90
52321;DHT22;38261;54.090;13.382;2023-06-22T00:22:08;16.70;99.90
52321;DHT22;38261;54.090;13.382;2023-06-22T00:23:30;16.70;99.90
52321;DHT22;38261;54.090;13.382;2023-06-22T00:24:56;16.70;99.90
52321;DHT22;38261;54.090;13.382;2023-06-22T00:26:19;16.70;99.90
52321;DHT22;38261;54.090;13.382;2023-06-22T00:27:41;16.70;99.90
52321;DHT22;38261;54.090;13.382;2023-06-22T00:29:03;16.60;99.90
52321;DHT22;38261;54.090;13.382;2023-06-22T00:30:25;16.60;99.90
52321;DHT22;38261;54.090;13.382;2023-06-22T00:31:48;16.60;99.90
52321;DHT22;38261;54.090;13.382;2023-06-22T00:33:10;16.60;99.90
52321;DHT22;38261;54.090;13.382;2023-06-22T00:34:32;16.60;99.90
52321;DHT22;38261;54.090;13.382;2023-06-22T00:35:55;16.60;99.90
52321;DHT22;38261;54.090;13.382;2023-06-22T00:37:17;16.60;99.90
52321;DHT22;38261;54.090;13.382;2023-06-22T00:38:40;16.60;99.90
52321;DHT22;38261;54.090;13.382;2023-06-22T00:40:05;16.50;99.90
52321;DHT22;38261;54.090;13.382;2023-06-22T00:41:27;16.50;99.90
52321;DHT22;38261;54.090;13.382;2023-06-22T00:42:50;16.50;99.90
52321;DHT22;38261;54.090;13.382;2023-06-22T00:44:12;16.50;99.90
52321;DHT22;38261;54.090;13.382;2023-06-22T00:45:34;16.40;99.90
52321;DHT22;38261;54.090;13.382;2023-06-22T00:46:56;16.40;99.90
52321;DHT22;38261;54.090;13.382;2023-06-22T00:48:19;16.40;99.90
52321;DHT22;38261;54.090;13.382;2023-06-22T00:49:41;16.30;99.90
52321;DHT22;38261;54.090;13.382;2023-06-22T00:51:03;16.30;99.90
52321;DHT22;38261;54.090;13.382;2023-06-22T00:52:26;16.20;99.90
52321;DHT22;38261;54.090;13.382;2023-06-22T00:53:51;16.20;99.90
52321;DHT22;38261;54.090;13.382;2023-06-22T00:55:15;16.20;99.90
52321;DHT22;38261;54.090;13.382;2023-06-22T00:56:41;16.10;99.90
52321;DHT22;38261;54.090;13.382;2023-06-22T00:58:06;16.10;99.90
52321;DHT22;38261;54.090;13.382;2023-06-22T00:59:32;16.10;99.90
52321;DHT22;38261;54.090;13.382;2023-06-22T01:00:55;16.10;99.90
52321;DHT22;38261;54.090;13.382;2023-06-22T01:02:17;16.10;99.90
52321;DHT22;38261;54.090;13.382;2023-06-22T01:03:39;16.00;99.90
52321;DHT22;38261;54.090;13.382;2023-06-22T01:05:01;16.00;99.90
52321;DHT22;38261;54.090;13.382;2023-06-22T01:06:29;16.00;99.90
52321;DHT22;38261;54.090;13.382;2023-06-22T01:09:59;16.00;99.90
52321;DHT22;38261;54.090;13.382;2023-06-22T01:11:57;15.90;99.90
52321;DHT22;38261;54.090;13.382;2023-06-22T01:14:58;15.90;99.90
52321;DHT22;38261;54.090;13.382;2023-06-22T01:16:27;15.90;99.90
52321;DHT22;38261;54.090;13.382;2023-06-22T01:17:52;15.90;99.90
52321;DHT22;38261;54.090;13.382;2023-06-22T01:19:20;15.90;99.90
52321;DHT22;38261;54.090;13.382;2023-06-22T01:20:47;15.90;99.90
52321;DHT22;38261;54.090;13.382;2023-06-22T01:22:13;15.90;99.90
52321;DHT22;38261;54.090;13.382;2023-06-22T01:24:07;15.90;99.90
52321;DHT22;38261;54.090;13.382;2023-06-22T01:25:48;15.90;99.90
52321;DHT22;38261;54.090;13.382;2023-06-22T01:28:50;16.00;99.90
52321;DHT22;38261;54.090;13.382;2023-06-22T01:30:13;16.00;99.90
52321;DHT22;38261;54.090;13.382;2023-06-22T01:31:38;16.00;99.90
52321;DHT22;38261;54.090;13.382;2023-06-22T01:33:02;16.00;99.90
52321;DHT22;38261;54.090;13.382;2023-06-22T01:34:26;16.00;99.90
52321;DHT22;38261;54.090;13.382;2023-06-22T01:35:49;16.00;99.90
52321;DHT22;38261;54.090;13.382;2023-06-22T01:37:11;16.00;99.90
52321;DHT22;38261;54.090;13.382;2023-06-22T01:38:34;16.00;99.90
52321;DHT22;38261;54.090;13.382;2023-06-22T01:39:58;16.00;99.90
52321;DHT22;38261;54.090;13.382;2023-06-22T01:41:24;16.00;99.90
52321;DHT22;38261;54.090;13.382;2023-06-22T01:42:47;16.00;99.90
52321;DHT22;38261;54.090;13.382;2023-06-22T01:44:10;16.00;99.90
52321;DHT22;38261;54.090;13.382;2023-06-22T01:45:34;16.00;99.90
52321;DHT22;38261;54.090;13.382;2023-06-22T01:46:56;16.00;99.90
52321;DHT22;38261;54.090;13.382;2023-06-22T01:48:19;16.00;99.90
52321;DHT22;38261;54.090;13.382;2023-06-22T01:49:42;15.90;99.90
52321;DHT22;38261;54.090;13.382;2023-06-22T01:51:04;15.90;99.90
52321;DHT22;38261;54.090;13.382;2023-06-22T01:52:26;15.90;99.90
52321;DHT22;38261;54.090;13.382;2023-06-22T01:53:48;15.90;99.90
52321;DHT22;38261;54.090;13.382;2023-06-22T01:55:11;15.90;99.90
52321;DHT22;38261;54.090;13.382;2023-06-22T01:56:33;15.90;99.90
52321;DHT22;38261;54.090;13.382;2023-06-22T01:57:55;15.90;99.90
52321;DHT22;38261;54.090;13.382;2023-06-22T01:59:25;15.90;99.90
52321;DHT22;38261;54.090;13.382;2023-06-22T02:01:09;15.90;99.90
52321;DHT22;38261;54.090;13.382;2023-06-22T02:02:41;15.90;99.90
52321;DHT22;38261;54.090;13.382;2023-06-22T02:04:11;15.90;99.90
52321;DHT22;38261;54.090;13.382;2023-06-22T02:05:38;15.90;99.90
52321;DHT22;38261;54.090;13.382;2023-06-22T02:07:09;15.90;99.90
52321;DHT22;38261;54.090;13.382;2023-06-22T02:08:45;15.90;99.90
52321;DHT22;38261;54.090;13.382;2023-06-22T02:10:10;15.90;99.90
52321;DHT22;38261;54.090;13.382;2023-06-22T02:11:37;15.90;99.90
52321;DHT22;38261;54.090;13.382;2023-06-22T02:13:00;15.90;99.90
52321;DHT22;38261;54.090;13.382;2023-06-22T02:14:24;15.90;99.90
52321;DHT22;38261;54.090;13.382;2023-06-22T02:15:47;16.00;99.90
52321;DHT22;38261;54.090;13.382;2023-06-22T02:17:10;16.00;99.90
52321;DHT22;38261;54.090;13.382;2023-06-22T02:18:32;16.00;99.90
52321;DHT22;38261;54.090;13.382;2023-06-22T02:19:57;16.00;99.90
52321;DHT22;38261;54.090;13.382;2023-06-22T02:21:20;16.00;99.90
52321;DHT22;38261;54.090;13.382;2023-06-22T02:22:43;15.90;99.90
52321;DHT22;38261;54.090;13.382;2023-06-22T02:24:05;15.90;99.90
52321;DHT22;38261;54.090;13.382;2023-06-22T02:25:27;15.90;99.90
52321;DHT22;38261;54.090;13.382;2023-06-22T02:26:49;15.90;99.90
52321;DHT22;38261;54.090;13.382;2023-06-22T02:28:12;15.90;99.90
52321;DHT22;38261;54.090;13.382;2023-06-22T02:29:34;15.90;99.90
52321;DHT22;38261;54.090;13.382;2023-06-22T02:30:56;15.90;99.90
52321;DHT22;38261;54.090;13.382;2023-06-22T02:32:18;15.90;99.90
52321;DHT22;38261;54.090;13.382;2023-06-22T02:33:40;15.80;99.90
52321;DHT22;38261;54.090;13.382;2023-06-22T02:35:03;15.90;99.90
52321;DHT22;38261;54.090;13.382;2023-06-22T02:36:28;15.90;99.90
52321;DHT22;38261;54.090;13.382;2023-06-22T02:37:52;15.90;99.90
52321;DHT22;38261;54.090;13.382;2023-06-22T02:39:14;15.80;99.90
52321;DHT22;38261;54.090;13.382;2023-06-22T02:40:36;15.90;99.90
52321;DHT22;38261;54.090;13.382;2023-06-22T02:41:58;15.90;99.90
52321;DHT22;38261;54.090;13.382;2023-06-22T02:43:21;15.90;99.90
52321;DHT22;38261;54.090;13.382;2023-06-22T02:44:43;15.90;99.90
52321;DHT22;38261;54.090;13.382;2023-06-22T02:46:05;15.90;99.90
52321;DHT22;38261;54.090;13.382;2023-06-22T02:47:27;15.90;99.90
52321;DHT22;38261;54.090;13.382;2023-06-22T02:48:49;15.90;99.90
52321;DHT22;38261;54.090;13.382;2023-06-22T02:50:11;16.00;99.90
52321;DHT22;38261;54.090;13.382;2023-06-22T02:51:34;16.00;99.90
52321;DHT22;38261;54.090;13.382;2023-06-22T02:52:56;16.10;99.90
52321;DHT22;38261;54.090;13.382;2023-06-22T02:54:18;16.10;99.90
52321;DHT22;38261;54.090;13.382;2023-06-22T02:55:40;16.10;99.90
52321;DHT22;38261;54.090;13.382;2023-06-22T02:57:03;16.20;99.90
52321;DHT22;38261;54.090;13.382;2023-06-22T02:58:26;16.20;99.90
52321;DHT22;38261;54.090;13.382;2023-06-22T02:59:48;16.20;99.90
52321;DHT22;38261;54.090;13.382;2023-06-22T03:01:10;16.30;99.90
52321;DHT22;38261;54.090;13.382;2023-06-22T03:02:35;16.30;99.90
52321;DHT22;38261;54.090;13.382;2023-06-22T03:03:57;16.30;99.90
52321;DHT22;38261;54.090;13.382;2023-06-22T03:05:19;16.40;99.90
52321;DHT22;38261;54.090;13.382;2023-06-22T03:06:41;16.40;99.90
52321;DHT22;38261;54.090;13.382;2023-06-22T03:08:03;16.40;99.90
52321;DHT22;38261;54.090;13.382;2023-06-22T03:09:26;16.40;99.90
52321;DHT22;38261;54.090;13.382;2023-06-22T03:10:49;16.50;99.90
52321;DHT22;38261;54.090;13.382;2023-06-22T03:12:11;16.50;99.90
52321;DHT22;38261;54.090;13.382;2023-06-22T03:13:33;16.60;99.90
52321;DHT22;38261;54.090;13.382;2023-06-22T03:14:56;16.60;99.90
52321;DHT22;38261;54.090;13.382;2023-06-22T03:16:18;16.70;99.90
52321;DHT22;38261;54.090;13.382;2023-06-22T03:17:40;16.70;99.90
52321;DHT22;38261;54.090;13.382;2023-06-22T03:19:03;16.80;99.90
52321;DHT22;38261;54.090;13.382;2023-06-22T03:20:25;16.80;99.90
52321;DHT22;38261;54.090;13.382;2023-06-22T03:21:49;16.80;99.90
52321;DHT22;38261;54.090;13.382;2023-06-22T03:23:11;16.90;99.90
52321;DHT22;38261;54.090;13.382;2023-06-22T03:24:34;16.90;99.90
52321;DHT22;38261;54.090;13.382;2023-06-22T03:25:56;17.00;99.90
52321;DHT22;38261;54.090;13.382;2023-06-22T03:27:18;17.00;99.90
52321;DHT22;38261;54.090;13.382;2023-06-22T03:28:41;17.10;99.90
52321;DHT22;38261;54.090;13.382;2023-06-22T03:30:03;17.10;99.90
52321;DHT22;38261;54.090;13.382;2023-06-22T03:31:25;17.30;99.90
52321;DHT22;38261;54.090;13.382;2023-06-22T03:32:48;17.30;99.90
52321;DHT22;38261;54.090;13.382;2023-06-22T03:34:10;17.40;99.90
52321;DHT22;38261;54.090;13.382;2023-06-22T03:35:32;17.50;99.90
52321;DHT22;38261;54.090;13.382;2023-06-22T03:36:54;17.60;99.90
52321;DHT22;38261;54.090;13.382;2023-06-22T03:38:17;17.60;99.90
52321;DHT22;38261;54.090;13.382;2023-06-22T03:39:39;17.70;99.90
52321;DHT22;38261;54.090;13.382;2023-06-22T03:41:01;17.80;99.90
52321;DHT22;38261;54.090;13.382;2023-06-22T03:42:23;17.80;99.90
52321;DHT22;38261;54.090;13.382;2023-06-22T03:43:46;17.80;99.90
52321;DHT22;38261;54.090;13.382;2023-06-22T03:45:08;17.80;99.90
52321;DHT22;38261;54.090;13.382;2023-06-22T03:46:31;17.70;99.90
52321;DHT22;38261;54.090;13.382;2023-06-22T03:47:53;17.70;99.90
52321;DHT22;38261;54.090;13.382;2023-06-22T03:49:15;17.60;99.90
52321;DHT22;38261;54.090;13.382;2023-06-22T03:50:37;17.60;99.90
52321;DHT22;38261;54.090;13.382;2023-06-22T03:52:01;17.60;99.90
52321;DHT22;38261;54.090;13.382;2023-06-22T03:53:24;17.60;99.90
52321;DHT22;38261;54.090;13.382;2023-06-22T03:54:46;17.70;99.90
52321;DHT22;38261;54.090;13.382;2023-06-22T03:56:08;17.70;99.90
52321;DHT22;38261;54.090;13.382;2023-06-22T03:57:30;17.80;99.90
52321;DHT22;38261;54.090;13.382;2023-06-22T03:58:52;17.90;99.90
52321;DHT22;38261;54.090;13.382;2023-06-22T04:00:15;18.00;99.90
52321;DHT22;38261;54.090;13.382;2023-06-22T04:01:40;18.10;99.90
52321;DHT22;38261;54.090;13.382;2023-06-22T04:03:02;18.20;99.90
52321;DHT22;38261;54.090;13.382;2023-06-22T04:04:24;18.30;99.90
52321;DHT22;38261;54.090;13.382;2023-06-22T04:05:47;18.50;99.90
52321;DHT22;38261;54.090;13.382;2023-06-22T04:07:10;18.60;99.90
52321;DHT22;38261;54.090;13.382;2023-06-22T04:08:32;18.90;99.90
52321;DHT22;38261;54.090;13.382;2023-06-22T04:09:54;19.20;99.90
52321;DHT22;38261;54.090;13.382;2023-06-22T04:11:17;19.40;99.90
52321;DHT22;38261;54.090;13.382;2023-06-22T04:12:40;19.50;99.90
52321;DHT22;38261;54.090;13.382;2023-06-22T04:14:02;19.70;99.90
52321;DHT22;38261;54.090;13.382;2023-06-22T04:15:24;19.80;99.90
52321;DHT22;38261;54.090;13.382;2023-06-22T04:16:47;19.90;99.90
52321;DHT22;38261;54.090;13.382;2023-06-22T04:18:09;19.90;99.90
52321;DHT22;38261;54.090;13.382;2023-06-22T04:19:31;19.90;99.90
52321;DHT22;38261;54.090;13.382;2023-06-22T04:20:53;19.90;99.90
52321;DHT22;38261;54.090;13.382;2023-06-22T04:22:15;19.80;99.90
52321;DHT22;38261;54.090;13.382;2023-06-22T04:23:38;19.80;99.90
52321;DHT22;38261;54.090;13.382;2023-06-22T04:25:00;19.80;99.90
52321;DHT22;38261;54.090;13.382;2023-06-22T04:26:22;19.80;99.90
52321;DHT22;38261;54.090;13.382;2023-06-22T04:27:44;19.90;99.90
52321;DHT22;38261;54.090;13.382;2023-06-22T04:29:07;19.90;99.90
52321;DHT22;38261;54.090;13.382;2023-06-22T04:30:32;20.10;99.90
52321;DHT22;38261;54.090;13.382;2023-06-22T04:31:55;20.20;99.90
52321;DHT22;38261;54.090;13.382;2023-06-22T04:33:19;20.50;99.90
52321;DHT22;38261;54.090;13.382;2023-06-22T04:34:42;20.90;99.90
52321;DHT22;38261;54.090;13.382;2023-06-22T04:36:04;21.50;99.90
52321;DHT22;38261;54.090;13.382;2023-06-22T04:37:26;22.30;99.90
52321;DHT22;38261;54.090;13.382;2023-06-22T04:38:49;22.90;99.90
52321;DHT22;38261;54.090;13.382;2023-06-22T04:40:14;23.30;99.90
52321;DHT22;38261;54.090;13.382;2023-06-22T04:41:37;23.50;99.90
52321;DHT22;38261;54.090;13.382;2023-06-22T04:43:05;23.80;99.90
52321;DHT22;38261;54.090;13.382;2023-06-22T04:44:28;24.20;99.90
52321;DHT22;38261;54.090;13.382;2023-06-22T04:45:50;24.30;99.90
52321;DHT22;38261;54.090;13.382;2023-06-22T04:47:14;24.30;99.90
52321;DHT22;38261;54.090;13.382;2023-06-22T04:48:36;24.50;99.90
52321;DHT22;38261;54.090;13.382;2023-06-22T04:49:58;24.80;99.90
52321;DHT22;38261;54.090;13.382;2023-06-22T04:51:21;24.80;99.90
52321;DHT22;38261;54.090;13.382;2023-06-22T04:52:43;24.90;99.90
52321;DHT22;38261;54.090;13.382;2023-06-22T04:55:32;25.60;99.90
52321;DHT22;38261;54.090;13.382;2023-06-22T04:56:55;26.10;99.90
52321;DHT22;38261;54.090;13.382;2023-06-22T04:58:19;26.60;99.90
52321;DHT22;38261;54.090;13.382;2023-06-22T04:59:44;27.00;99.90
52321;DHT22;38261;54.090;13.382;2023-06-22T05:03:54;28.20;99.90
52321;DHT22;38261;54.090;13.382;2023-06-22T05:05:17;28.50;99.90
52321;DHT22;38261;54.090;13.382;2023-06-22T05:06:40;28.80;99.90
52321;DHT22;38261;54.090;13.382;2023-06-22T05:08:03;29.00;99.90
52321;DHT22;38261;54.090;13.382;2023-06-22T05:09:29;29.00;99.90
52321;DHT22;38261;54.090;13.382;2023-06-22T05:51:16;29.40;99.90
52321;DHT22;38261;54.090;13.382;2023-06-22T05:52:38;29.60;99.90
52321;DHT22;38261;54.090;13.382;2023-06-22T05:54:00;29.40;99.90
52321;DHT22;38261;54.090;13.382;2023-06-22T05:55:23;29.20;99.90
52321;DHT22;38261;54.090;13.382;2023-06-22T05:56:45;28.90;99.90
52321;DHT22;38261;54.090;13.382;2023-06-22T05:58:07;28.50;99.90
52321;DHT22;38261;54.090;13.382;2023-06-22T05:59:29;28.30;99.90
52321;DHT22;38261;54.090;13.382;2023-06-22T06:00:51;28.00;99.90
52321;DHT22;38261;54.090;13.382;2023-06-22T06:02:13;27.90;99.90
52321;DHT22;38261;54.090;13.382;2023-06-22T06:03:36;27.70;99.90
52321;DHT22;38261;54.090;13.382;2023-06-22T06:05:04;27.60;99.90
52321;DHT22;38261;54.090;13.382;2023-06-22T06:06:26;27.60;99.90
52321;DHT22;38261;54.090;13.382;2023-06-22T06:07:50;27.60;99.90
52321;DHT22;38261;54.090;13.382;2023-06-22T06:09:13;27.40;99.90
52321;DHT22;38261;54.090;13.382;2023-06-22T06:10:35;27.20;99.90
52321;DHT22;38261;54.090;13.382;2023-06-22T06:11:57;27.30;99.90
52321;DHT22;38261;54.090;13.382;2023-06-22T06:13:19;27.40;99.90
52321;DHT22;38261;54.090;13.382;2023-06-22T06:14:42;27.60;99.90
52321;DHT22;38261;54.090;13.382;2023-06-22T06:16:04;28.00;99.90
52321;DHT22;38261;54.090;13.382;2023-06-22T06:17:26;28.30;99.90
52321;DHT22;38261;54.090;13.382;2023-06-22T06:18:49;28.70;99.90
52321;DHT22;38261;54.090;13.382;2023-06-22T06:20:12;29.10;99.90
52321;DHT22;38261;54.090;13.382;2023-06-22T06:21:34;29.20;99.90
52321;DHT22;38261;54.090;13.382;2023-06-22T06:22:57;29.20;99.90
52321;DHT22;38261;54.090;13.382;2023-06-22T06:24:19;29.10;99.90
52321;DHT22;38261;54.090;13.382;2023-06-22T06:25:41;28.90;99.90
52321;DHT22;38261;54.090;13.382;2023-06-22T06:27:03;28.50;99.90
52321;DHT22;38261;54.090;13.382;2023-06-22T06:28:26;28.50;99.90
52321;DHT22;38261;54.090;13.382;2023-06-22T06:29:49;28.90;99.90
52321;DHT22;38261;54.090;13.382;2023-06-22T06:31:11;28.70;99.90
52321;DHT22;38261;54.090;13.382;2023-06-22T06:32:34;28.60;99.90
52321;DHT22;38261;54.090;13.382;2023-06-22T06:33:56;28.30;99.90
52321;DHT22;38261;54.090;13.382;2023-06-22T06:35:18;27.70;99.90
52321;DHT22;38261;54.090;13.382;2023-06-22T06:36:41;26.80;99.90
52321;DHT22;38261;54.090;13.382;2023-06-22T06:38:03;26.30;99.90
52321;DHT22;38261;54.090;13.382;2023-06-22T06:39:25;25.90;99.90
52321;DHT22;38261;54.090;13.382;2023-06-22T06:40:47;25.70;99.90
52321;DHT22;38261;54.090;13.382;2023-06-22T06:42:10;25.50;99.90
52321;DHT22;38261;54.090;13.382;2023-06-22T06:53:13;23.70;99.90
52321;DHT22;38261;54.090;13.382;2023-06-22T06:54:35;24.40;99.90
52321;DHT22;38261;54.090;13.382;2023-06-22T06:55:57;24.30;99.90
52321;DHT22;38261;54.090;13.382;2023-06-22T06:57:20;24.20;99.90
52321;DHT22;38261;54.090;13.382;2023-06-22T06:58:42;24.20;99.90
52321;DHT22;38261;54.090;13.382;2023-06-22T07:00:10;24.20;99.90
52321;DHT22;38261;54.090;13.382;2023-06-22T07:01:34;24.30;99.90
52321;DHT22;38261;54.090;13.382;2023-06-22T07:02:58;24.30;99.90
52321;DHT22;38261;54.090;13.382;2023-06-22T07:04:20;24.30;99.90
52321;DHT22;38261;54.090;13.382;2023-06-22T07:05:42;24.30;99.90
52321;DHT22;38261;54.090;13.382;2023-06-22T07:07:04;24.30;99.90
52321;DHT22;38261;54.090;13.382;2023-06-22T07:08:27;24.20;99.90
52321;DHT22;38261;54.090;13.382;2023-06-22T13:49:17;27.40;99.90
52321;DHT22;38261;54.090;13.382;2023-06-22T13:50:39;27.40;99.90
52321;DHT22;38261;54.090;13.382;2023-06-22T13:52:01;27.50;99.90
52321;DHT22;38261;54.090;13.382;2023-06-22T13:53:25;27.50;99.90
52321;DHT22;38261;54.090;13.382;2023-06-22T13:54:49;27.40;99.90
52321;DHT22;38261;54.090;13.382;2023-06-22T13:56:11;27.50;99.90
52321;DHT22;38261;54.090;13.382;2023-06-22T13:57:34;27.50;99.90
52321;DHT22;38261;54.090;13.382;2023-06-22T13:58:56;27.50;99.90
52321;DHT22;38261;54.090;13.382;2023-06-22T14:00:18;27.50;99.90
52321;DHT22;38261;54.090;13.382;2023-06-22T14:01:40;27.50;99.90
52321;DHT22;38261;54.090;13.382;2023-06-22T14:03:03;27.40;99.90
52321;DHT22;38261;54.090;13.382;2023-06-22T14:04:25;27.40;99.90
52321;DHT22;38261;54.090;13.382;2023-06-22T14:05:48;27.30;99.90
52321;DHT22;38261;54.090;13.382;2023-06-22T14:07:10;27.30;99.90
52321;DHT22;38261;54.090;13.382;2023-06-22T14:08:36;27.30;99.90
52321;DHT22;38261;54.090;13.382;2023-06-22T14:10:04;27.30;99.90
52321;DHT22;38261;54.090;13.382;2023-06-22T14:11:26;27.40;99.90
52321;DHT22;38261;54.090;13.382;2023-06-22T14:12:48;27.30;99.90
52321;DHT22;38261;54.090;13.382;2023-06-22T14:14:10;27.40;99.90
52321;DHT22;38261;54.090;13.382;2023-06-22T14:15:32;27.30;99.90
52321;DHT22;38261;54.090;13.382;2023-06-22T14:16:54;27.40;99.90
52321;DHT22;38261;54.090;13.382;2023-06-22T14:18:17;27.50;99.90
52321;DHT22;38261;54.090;13.382;2023-06-22T14:19:39;27.50;99.90
52321;DHT22;38261;54.090;13.382;2023-06-22T14:21:01;27.50;99.90
52321;DHT22;38261;54.090;13.382;2023-06-22T14:22:23;27.50;99.90
52321;DHT22;38261;54.090;13.382;2023-06-22T14:23:45;27.50;99.90
52321;DHT22;38261;54.090;13.382;2023-06-22T14:25:11;27.40;99.90
52321;DHT22;38261;54.090;13.382;2023-06-22T14:26:33;27.30;99.90
52321;DHT22;38261;54.090;13.382;2023-06-22T14:27:55;27.30;99.90
52321;DHT22;38261;54.090;13.382;2023-06-22T14:29:17;27.20;99.90
52321;DHT22;38261;54.090;13.382;2023-06-22T14:30:39;27.10;99.90
52321;DHT22;38261;54.090;13.382;2023-06-22T14:32:02;27.00;99.90
52321;DHT22;38261;54.090;13.382;2023-06-22T14:33:24;26.90;99.90
52321;DHT22;38261;54.090;13.382;2023-06-22T14:34:46;26.90;99.90
52321;DHT22;38261;54.090;13.382;2023-06-22T14:36:08;26.90;99.90
52321;DHT22;38261;54.090;13.382;2023-06-22T14:37:33;26.90;99.90
52321;DHT22;38261;54.090;13.382;2023-06-22T14:38:55;26.90;99.90
52321;DHT22;38261;54.090;13.382;2023-06-22T14:40:17;26.80;99.90
52321;DHT22;38261;54.090;13.382;2023-06-22T14:58:13;27.00;99.90
52321;DHT22;38261;54.090;13.382;2023-06-22T14:59:35;27.00;99.90
52321;DHT22;38261;54.090;13.382;2023-06-22T15:00:57;26.80;99.90
52321;DHT22;38261;54.090;13.382;2023-06-22T15:02:19;26.80;99.90
52321;DHT22;38261;54.090;13.382;2023-06-22T15:03:41;26.60;99.90
52321;DHT22;38261;54.090;13.382;2023-06-22T15:05:04;26.60;99.90
52321;DHT22;38261;54.090;13.382;2023-06-22T15:06:27;26.60;99.90
52321;DHT22;38261;54.090;13.382;2023-06-22T15:07:49;26.70;99.90
52321;DHT22;38261;54.090;13.382;2023-06-22T15:09:11;26.70;99.90
52321;DHT22;38261;54.090;13.382;2023-06-22T15:10:33;26.60;99.90
52321;DHT22;38261;54.090;13.382;2023-06-22T15:11:55;26.60;99.90
52321;DHT22;38261;54.090;13.382;2023-06-22T15:13:18;26.60;99.90
52321;DHT22;38261;54.090;13.382;2023-06-22T15:14:41;26.70;99.90
52321;DHT22;38261;54.090;13.382;2023-06-22T15:16:04;26.60;99.90
52321;DHT22;38261;54.090;13.382;2023-06-22T15:17:26;26.70;99.90
52321;DHT22;38261;54.090;13.382;2023-06-22T15:18:52;26.70;99.90
52321;DHT22;38261;54.090;13.382;2023-06-22T15:20:15;26.60;99.90
52321;DHT22;38261;54.090;13.382;2023-06-22T15:21:37;26.40;99.90
52321;DHT22;38261;54.090;13.382;2023-06-22T15:22:59;26.30;99.90
52321;DHT22;38261;54.090;13.382;2023-06-22T15:24:21;26.30;99.90
52321;DHT22;38261;54.090;13.382;2023-06-22T15:25:43;26.30;99.90
52321;DHT22;38261;54.090;13.382;2023-06-22T15:27:06;26.20;99.90
52321;DHT22;38261;54.090;13.382;2023-06-22T15:28:29;26.30;99.90
52321;DHT22;38261;54.090;13.382;2023-06-22T15:29:51;26.30;99.90
52321;DHT22;38261;54.090;13.382;2023-06-22T15:31:13;26.30;99.90
52321;DHT22;38261;54.090;13.382;2023-06-22T15:32:36;26.30;99.90
52321;DHT22;38261;54.090;13.382;2023-06-22T15:33:58;26.30;99.90
52321;DHT22;38261;54.090;13.382;2023-06-22T15:35:20;26.30;99.90
52321;DHT22;38261;54.090;13.382;2023-06-22T15:36:42;26.30;99.90
52321;DHT22;38261;54.090;13.382;2023-06-22T15:38:04;26.30;99.90
52321;DHT22;38261;54.090;13.382;2023-06-22T15:39:26;26.30;99.90
52321;DHT22;38261;54.090;13.382;2023-06-22T15:40:48;26.30;99.90
52321;DHT22;38261;54.090;13.382;2023-06-22T15:42:11;26.30;99.90
52321;DHT22;38261;54.090;13.382;2023-06-22T15:43:33;26.30;99.90
52321;DHT22;38261;54.090;13.382;2023-06-22T15:44:55;26.30;99.90
52321;DHT22;38261;54.090;13.382;2023-06-22T15:46:17;26.30;99.90
52321;DHT22;38261;54.090;13.382;2023-06-22T15:47:40;26.30;99.90
52321;DHT22;38261;54.090;13.382;2023-06-22T15:49:02;26.30;99.90
52321;DHT22;38261;54.090;13.382;2023-06-22T15:50:24;26.20;99.90
52321;DHT22;38261;54.090;13.382;2023-06-22T15:51:46;26.30;99.90
52321;DHT22;38261;54.090;13.382;2023-06-22T15:53:08;26.30;99.90
52321;DHT22;38261;54.090;13.382;2023-06-22T15:54:30;26.40;99.90
52321;DHT22;38261;54.090;13.382;2023-06-22T15:55:53;26.40;99.90
52321;DHT22;38261;54.090;13.382;2023-06-22T15:57:16;26.50;99.90
52321;DHT22;38261;54.090;13.382;2023-06-22T15:58:38;26.40;99.90
52321;DHT22;38261;54.090;13.382;2023-06-22T16:00:01;26.50;99.90
52321;DHT22;38261;54.090;13.382;2023-06-22T16:01:24;26.60;99.90
52321;DHT22;38261;54.090;13.382;2023-06-22T16:02:46;26.70;99.90
52321;DHT22;38261;54.090;13.382;2023-06-22T16:04:09;26.70;99.90
52321;DHT22;38261;54.090;13.382;2023-06-22T16:05:31;26.60;99.90
52321;DHT22;38261;54.090;13.382;2023-06-22T16:06:53;26.70;99.90
52321;DHT22;38261;54.090;13.382;2023-06-22T16:08:15;26.70;99.90
52321;DHT22;38261;54.090;13.382;2023-06-22T16:09:38;26.60;99.90
52321;DHT22;38261;54.090;13.382;2023-06-22T16:11:00;26.50;99.90
52321;DHT22;38261;54.090;13.382;2023-06-22T16:12:22;26.40;99.90
52321;DHT22;38261;54.090;13.382;2023-06-22T16:13:45;26.40;99.90
52321;DHT22;38261;54.090;13.382;2023-06-22T16:15:08;26.30;99.90
52321;DHT22;38261;54.090;13.382;2023-06-22T16:16:31;26.30;99.90
52321;DHT22;38261;54.090;13.382;2023-06-22T16:17:53;26.30;99.90
52321;DHT22;38261;54.090;13.382;2023-06-22T16:19:15;26.20;99.90
52321;DHT22;38261;54.090;13.382;2023-06-22T16:20:38;26.10;99.90
52321;DHT22;38261;54.090;13.382;2023-06-22T16:22:00;26.00;99.90
52321;DHT22;38261;54.090;13.382;2023-06-22T16:23:23;25.90;99.90
52321;DHT22;38261;54.090;13.382;2023-06-22T16:24:47;25.90;99.90
52321;DHT22;38261;54.090;13.382;2023-06-22T16:26:12;25.80;99.90
52321;DHT22;38261;54.090;13.382;2023-06-22T16:27:34;25.70;99.90
52321;DHT22;38261;54.090;13.382;2023-06-22T16:28:56;25.70;99.90
52321;DHT22;38261;54.090;13.382;2023-06-22T16:30:18;25.60;99.90
52321;DHT22;38261;54.090;13.382;2023-06-22T16:31:40;25.60;99.90